Main page
METAR-TAF:

METAR-TAF

Airports :

City of Derry Airport

Derry, Northern Ireland

latitude: 55-03N, longitude: 007-09W, elevation: 9 m

Current weather observation

The report was made 38 minutes ago, at 10:50 UTC
Wind 11 kt from the West
Temperature 16°C
Humidity 68%
Pressure 1023 hPa
Visibility 10 km or more
Few clouds at a height of 2200 ft
Broken clouds at a height of 3000 ft

METAR: EGAE 121050Z 27011KT 9999 FEW022 BKN030 16/10 Q1023

Time: 12:28 (11:28 UTC)

Forecast

The report was made 3 hours and 12 minutes ago, at 08:16 UTC
Forecast valid from 12 at 09 UTC to 12 at 17 UTC
Wind 8 kt from the West
Visibility 10 km or more
Few clouds at a height of 2000 ft
Broken clouds at a height of 3000 ft

TAF: EGAE 120816Z 1209/1217 26008KT 9999 FEW020 BKN030

Weather observations and forecasts of more than 4000 airports (METAR and TAF reports).

The available stations are represented by yellow and red dots on the map.

Hover mouse over dot to see the name of the station.

Then click to see weather observations and forecasts.

To change the map : click on the green buttons with a black cross to zoom in, on the green button with a dash to zoom out, or on the green arrows for adjacent maps.


METAR-TAF: